Time;durP1;ratioP1;P1;durP2;ratioP2;P2;SDS_P1;SDS_P2;PMS_P1;PMS_P2;Temp;Humidity;BMP_temperature;BMP_pressure;BME280_temperature;BME280_humidity;BME280_pressure;Samples;Min_cycle;Max_cycle;Signal;HPM_P1;HPM_P2
2022/01/22 00:01:57;;;;;;;11.35;8.07;;;;;;;2.55;97.71;101186.41;5008007;28;20030;-74
2022/01/22 00:04:22;;;;;;;12.32;8.30;;;;;;;2.58;97.74;101172.59;5011753;28;20131;-74
2022/01/22 00:06:49;;;;;;;11.27;7.25;;;;;;;2.66;97.33;101185.91;5011917;28;20034;-74
2022/01/22 00:09:14;;;;;;;10.50;7.10;;;;;;;2.72;97.25;101193.94;5011753;28;20026;-74
2022/01/22 00:11:50;;;;;;;13.18;9.18;;;;;;;2.72;97.19;101196.53;5011895;28;20488;-74
2022/01/22 00:14:25;;;;;;;9.60;7.10;;;;;;;2.72;97.12;101165.25;5011651;28;20443;-73
2022/01/22 00:16:56;;;;;;;9.73;6.60;;;;;;;2.74;97.26;101169.69;5008345;28;20042;-74
2022/01/22 00:19:22;;;;;;;11.73;8.25;;;;;;;2.73;97.81;101175.75;5011683;28;20030;-73
2022/01/22 00:21:48;;;;;;;11.20;7.95;;;;;;;2.74;98.20;101166.22;5011745;28;20550;-74
2022/01/22 00:24:13;;;;;;;11.90;8.20;;;;;;;2.73;97.71;101165.34;5011596;28;20044;-74
2022/01/22 00:26:40;;;;;;;11.07;7.88;;;;;;;2.75;98.27;101167.97;5007475;28;20038;-74
2022/01/22 00:29:06;;;;;;;11.38;8.60;;;;;;;2.74;98.69;101155.78;5011075;28;20451;-75
2022/01/22 00:31:31;;;;;;;11.30;8.23;;;;;;;2.80;98.43;101153.38;5011495;28;20042;-74
2022/01/22 00:33:56;;;;;;;9.15;6.93;;;;;;;2.82;98.54;101162.16;5011079;28;20038;-75
2022/01/22 00:36:22;;;;;;;8.95;6.68;;;;;;;2.84;98.21;101155.28;5016246;28;20063;-74
2022/01/22 00:38:47;;;;;;;13.93;8.63;;;;;;;2.79;98.67;101154.22;5011276;28;20054;-74
2022/01/22 00:41:13;;;;;;;13.27;8.45;;;;;;;2.82;98.67;101159.53;5010947;28;20444;-74
2022/01/22 00:43:38;;;;;;;9.82;7.93;;;;;;;2.83;98.45;101150.91;5009981;28;20095;-74
2022/01/22 00:46:04;;;;;;;9.43;7.25;;;;;;;2.80;98.32;101163.81;5009895;28;20072;-74
2022/01/22 00:48:29;;;;;;;11.70;8.82;;;;;;;2.75;98.97;101155.84;5011297;28;20030;-75
2022/01/22 00:50:56;;;;;;;13.52;9.32;;;;;;;2.82;98.78;101151.72;5011416;28;20504;-75
2022/01/22 00:53:25;;;;;;;10.35;7.60;;;;;;;2.92;98.56;101166.84;5011438;28;20041;-75
2022/01/22 00:55:50;;;;;;;10.82;7.15;;;;;;;2.86;98.85;101148.41;5020748;28;20125;-74
2022/01/22 00:58:16;;;;;;;10.65;7.28;;;;;;;2.91;98.93;101157.28;5006779;28;20459;-75
2022/01/22 01:00:41;;;;;;;12.15;8.52;;;;;;;2.89;99.09;101164.16;5010843;28;20556;-75
2022/01/22 01:03:07;;;;;;;11.05;7.07;;;;;;;2.91;99.37;101162.50;5011012;28;20116;-74
2022/01/22 01:05:32;;;;;;;11.02;7.78;;;;;;;2.92;99.43;101152.94;5010988;28;20038;-74
2022/01/22 01:07:57;;;;;;;11.63;7.05;;;;;;;2.96;99.46;101155.72;5009850;28;20051;-74
2022/01/22 01:10:23;;;;;;;10.00;7.20;;;;;;;2.98;99.13;101153.16;5026112;28;20033;-74
2022/01/22 01:12:51;;;;;;;9.27;6.65;;;;;;;3.01;99.31;101154.16;5009920;28;20036;-74
2022/01/22 01:34:19;;;;;;;10.40;6.85;;;;;;;3.20;99.76;101162.59;5014385;28;20539;-75
2022/01/22 01:36:47;;;;;;;7.90;6.00;;;;;;;3.22;99.68;101166.13;5013078;28;20069;-75
2022/01/22 01:39:20;;;;;;;7.38;5.53;;;;;;;3.27;99.74;101168.09;5013117;28;20026;-75
2022/01/22 01:41:53;;;;;;;11.55;7.57;;;;;;;3.25;99.69;101171.47;5010720;28;20037;-75
2022/01/22 01:44:20;;;;;;;8.85;6.30;;;;;;;3.33;99.65;101172.63;5009895;28;20030;-75
2022/01/22 01:47:02;;;;;;;10.57;7.28;;;;;;;3.32;99.44;101170.81;5013327;28;20030;-75
2022/01/22 01:49:31;;;;;;;8.13;5.85;;;;;;;3.39;99.69;101171.94;5021282;28;20033;-75
2022/01/22 01:52:00;;;;;;;8.38;6.07;;;;;;;3.40;99.68;101164.13;5013013;28;20033;-74
2022/01/22 01:54:46;;;;;;;7.82;5.72;;;;;;;3.46;100.00;101169.56;5021175;28;20116;-75
2022/01/22 01:59:57;;;;;;;6.40;4.68;;;;;;;3.55;100.00;101168.09;5021217;28;20058;-74
2022/01/22 02:02:42;;;;;;;7.75;5.35;;;;;;;3.61;99.79;101178.72;5011732;28;20045;-75
2022/01/22 02:05:10;;;;;;;5.70;4.10;;;;;;;3.70;100.00;101168.59;5012646;28;20041;-74
2022/01/22 02:07:39;;;;;;;8.45;5.70;;;;;;;3.74;100.00;101175.66;5021147;28;20045;-75
2022/01/22 02:10:15;;;;;;;7.95;4.70;;;;;;;3.77;100.00;101172.28;5012750;28;20041;-75
2022/01/22 02:23:46;;;;;;;5.18;3.55;;;;;;;4.08;99.51;101167.16;5016635;28;20373;-74
2022/01/22 02:26:14;;;;;;;4.95;3.15;;;;;;;4.13;99.48;101173.41;5012201;28;20065;-74
2022/01/22 02:28:48;;;;;;;4.05;2.63;;;;;;;4.17;99.65;101182.25;5008527;28;20514;-74
2022/01/22 02:31:38;;;;;;;4.18;2.75;;;;;;;4.18;100.00;101179.66;5024753;28;20041;-74
2022/01/22 02:36:55;;;;;;;3.63;2.03;;;;;;;4.23;99.43;101203.31;5013043;28;20034;-74
2022/01/22 02:39:26;;;;;;;3.10;1.60;;;;;;;4.24;99.27;101189.41;5011232;28;20477;-74
2022/01/22 02:41:52;;;;;;;3.50;1.80;;;;;;;4.23;98.86;101179.81;5012896;28;20113;-75
2022/01/22 02:44:36;;;;;;;3.80;2.28;;;;;;;4.25;98.79;101193.81;5013272;28;20447;-74
2022/01/22 02:47:07;;;;;;;2.80;1.65;;;;;;;4.25;98.95;101198.16;5022843;28;20031;-74
2022/01/22 02:49:35;;;;;;;3.10;1.92;;;;;;;4.27;99.04;101194.75;5013232;28;20092;-74
2022/01/22 02:52:05;;;;;;;3.40;2.00;;;;;;;4.28;99.27;101193.91;5011866;28;20040;-74
2022/01/22 02:54:30;;;;;;;2.50;1.45;;;;;;;4.28;99.07;101201.72;5011076;28;20115;-74
2022/01/22 02:56:56;;;;;;;3.30;1.70;;;;;;;4.30;98.84;101196.56;5013197;28;20033;-74
2022/01/22 02:59:23;;;;;;;3.10;1.85;;;;;;;4.27;98.97;101199.97;5013119;28;20034;-74
2022/01/22 03:01:51;;;;;;;4.50;1.95;;;;;;;4.28;99.06;101206.97;5011854;28;20057;-74
2022/01/22 03:04:16;;;;;;;2.60;1.50;;;;;;;4.31;98.49;101211.38;5024287;28;20038;-74
2022/01/22 03:06:42;;;;;;;3.42;1.27;;;;;;;4.27;98.95;101205.19;5019523;28;20034;-74
2022/01/22 03:09:10;;;;;;;2.78;1.67;;;;;;;4.26;98.63;101211.25;5011556;28;20034;-74
2022/01/22 03:12:12;;;;;;;2.17;1.20;;;;;;;4.23;99.17;101224.22;5011633;28;20022;-74
2022/01/22 03:15:23;;;;;;;1.90;0.80;;;;;;;4.25;98.21;101233.00;5019019;28;20041;-74
2022/01/22 03:17:45;;;;;;;2.45;1.52;;;;;;;4.20;97.91;101239.81;5024777;28;20032;-74
2022/01/22 03:27:51;;;;;;;1.85;0.90;;;;;;;4.21;98.68;101259.88;5011269;28;20030;-74
2022/01/22 03:30:17;;;;;;;1.42;0.70;;;;;;;4.22;98.50;101259.03;5012407;28;20124;-73
2022/01/22 03:32:47;;;;;;;2.33;0.82;;;;;;;4.20;99.08;101263.31;5010737;28;20123;-74
2022/01/22 03:35:25;;;;;;;2.45;1.30;;;;;;;4.22;98.71;101268.56;5010955;28;20497;-74
2022/01/22 03:37:55;;;;;;;1.58;0.98;;;;;;;4.24;98.93;101273.00;5007244;28;20453;-74
2022/01/22 03:40:23;;;;;;;2.60;0.82;;;;;;;4.26;98.71;101268.72;5016013;28;20058;-74
2022/01/22 03:42:50;;;;;;;1.42;0.75;;;;;;;4.23;98.01;101271.25;5023939;28;20488;-74
2022/01/22 03:45:17;;;;;;;1.50;0.75;;;;;;;4.24;97.69;101280.84;5008225;28;20040;-75
2022/01/22 03:47:43;;;;;;;0.90;0.50;;;;;;;4.24;97.97;101277.38;5010045;28;20057;-75
2022/01/22 03:50:10;;;;;;;1.30;0.55;;;;;;;4.23;97.35;101286.94;5010362;28;20485;-75
2022/01/22 03:52:36;;;;;;;1.00;0.50;;;;;;;4.23;97.48;101301.72;5010789;28;20030;-75
2022/01/22 03:55:04;;;;;;;1.38;0.47;;;;;;;4.22;97.78;101303.47;5010623;28;20041;-75
2022/01/22 03:58:08;;;;;;;0.60;0.40;;;;;;;4.18;97.33;101310.28;5008063;28;20124;-75
2022/01/22 04:00:35;;;;;;;1.55;0.90;;;;;;;4.11;97.95;101316.19;5014853;28;20041;-75
2022/01/22 04:08:36;;;;;;;1.13;0.57;;;;;;;4.01;95.62;101342.84;5020055;28;20120;-75
2022/01/22 04:11:02;;;;;;;1.10;0.65;;;;;;;3.92;95.47;101343.38;5018572;28;20076;-75
2022/01/22 04:13:33;;;;;;;0.80;0.30;;;;;;;3.94;95.39;101343.44;5010775;28;20124;-75
2022/01/22 04:15:58;;;;;;;1.15;0.50;;;;;;;3.89;94.69;101343.28;5007029;28;20057;-75
2022/01/22 04:26:59;;;;;;;1.02;0.60;;;;;;;3.66;94.46;101367.72;5022170;28;20035;-75
2022/01/22 04:29:27;;;;;;;1.38;0.63;;;;;;;3.59;94.55;101376.16;5007524;28;20046;-74
2022/01/22 04:31:53;;;;;;;1.73;0.80;;;;;;;3.58;94.77;101379.63;5008206;28;20076;-75
2022/01/22 04:34:19;;;;;;;2.45;1.13;;;;;;;3.55;94.51;101383.00;5010584;28;20455;-76
2022/01/22 04:36:45;;;;;;;1.67;0.82;;;;;;;3.58;94.25;101403.09;5009687;28;20034;-75
2022/01/22 04:39:11;;;;;;;1.73;0.85;;;;;;;3.62;93.73;101405.00;5011232;28;20033;-75
2022/01/22 04:41:37;;;;;;;2.30;0.98;;;;;;;3.64;93.93;101409.44;5010331;28;20034;-75
2022/01/22 04:44:05;;;;;;;3.70;1.17;;;;;;;3.68;93.96;101400.88;5006367;28;20169;-74
2022/01/22 04:46:52;;;;;;;2.47;1.42;;;;;;;3.70;93.85;101398.34;5009654;28;20029;-75
2022/01/22 04:52:34;;;;;;;2.20;1.30;;;;;;;3.69;93.69;101406.97;5009625;28;20037;-75
2022/01/22 04:57:27;;;;;;;2.50;1.20;;;;;;;3.77;93.14;101412.47;5019405;28;20034;-75
2022/01/22 04:59:52;;;;;;;3.75;1.35;;;;;;;3.71;93.36;101419.25;5003546;28;20069;-75
2022/01/22 05:02:17;;;;;;;4.22;1.50;;;;;;;3.74;93.01;101426.31;5029612;28;20448;-75
2022/01/22 05:05:03;;;;;;;3.65;1.70;;;;;;;3.74;92.65;101428.91;5011414;28;20034;-75
2022/01/22 05:07:37;;;;;;;3.78;1.88;;;;;;;3.75;92.92;101435.94;5013818;28;20026;-75
2022/01/22 05:10:15;;;;;;;4.63;2.17;;;;;;;3.72;92.82;101430.59;5018169;28;20037;-75
2022/01/22 05:12:42;;;;;;;4.05;2.00;;;;;;;3.64;92.39;101426.81;5013695;28;20057;-75
2022/01/22 05:15:08;;;;;;;4.88;2.20;;;;;;;3.55;92.75;101439.53;5014158;28;20058;-75
2022/01/22 05:17:37;;;;;;;3.35;1.90;;;;;;;3.49;92.77;101451.53;5029260;28;20080;-75
2022/01/22 05:20:18;;;;;;;4.53;2.30;;;;;;;3.42;93.05;101446.03;5010071;28;20026;-75
2022/01/22 05:25:35;;;;;;;5.10;2.42;;;;;;;3.16;94.12;101456.34;5013254;28;20034;-75
2022/01/22 05:28:37;;;;;;;5.10;2.05;;;;;;;3.06;94.01;101462.91;5018088;28;20547;-75
2022/01/22 05:31:32;;;;;;;6.57;2.50;;;;;;;2.98;94.92;101451.31;5013137;28;20137;-75
2022/01/22 05:37:03;;;;;;;4.17;2.07;;;;;;;2.91;95.38;101464.94;5013102;28;20117;-76
2022/01/22 05:39:31;;;;;;;4.80;2.53;;;;;;;2.96;95.58;101458.19;5023720;28;20034;-75
2022/01/22 05:41:58;;;;;;;3.60;2.25;;;;;;;2.96;95.41;101468.63;5013140;28;20033;-75
2022/01/22 05:44:24;;;;;;;6.00;3.35;;;;;;;2.94;95.10;101465.06;5013425;28;20485;-74
2022/01/22 05:46:52;;;;;;;4.35;2.50;;;;;;;2.90;95.36;101462.25;5013126;28;20042;-75
2022/01/22 05:49:20;;;;;;;4.75;2.80;;;;;;;2.88;95.11;101474.34;5009749;28;20042;-75
2022/01/22 05:51:47;;;;;;;5.18;2.83;;;;;;;2.88;95.06;101479.56;5013870;28;20099;-75
2022/01/22 05:59:42;;;;;;;7.43;2.53;;;;;;;2.89;94.99;101497.88;5022872;28;20053;-75
2022/01/22 06:02:11;;;;;;;4.75;2.42;;;;;;;2.94;95.47;101498.97;5012118;28;20112;-75
2022/01/22 06:04:39;;;;;;;6.43;2.60;;;;;;;2.97;95.42;101506.91;5025103;28;20125;-75
2022/01/22 06:07:06;;;;;;;5.60;2.50;;;;;;;2.96;95.15;101515.56;5012206;28;20488;-75
2022/01/22 06:09:33;;;;;;;3.67;2.35;;;;;;;2.97;95.35;101522.56;5012446;28;20109;-75
2022/01/22 06:14:48;;;;;;;5.25;3.05;;;;;;;3.20;95.91;101525.22;5011177;28;20177;-75
2022/01/22 06:17:14;;;;;;;4.88;2.80;;;;;;;3.23;95.35;101531.41;5012535;28;20116;-75
2022/01/22 06:19:46;;;;;;;4.70;2.47;;;;;;;3.32;95.45;101538.72;5012612;28;20025;-75
2022/01/22 06:22:12;;;;;;;7.85;3.22;;;;;;;3.38;95.29;101538.06;5011748;28;20064;-75
2022/01/22 06:24:37;;;;;;;5.70;3.10;;;;;;;3.40;94.42;101539.91;5013451;28;20112;-75
2022/01/22 06:27:07;;;;;;;7.50;2.75;;;;;;;3.37;94.16;101550.22;5012262;28;20033;-75
2022/01/22 06:29:32;;;;;;;5.60;3.20;;;;;;;3.35;93.69;101557.09;5012054;28;20034;-75
2022/01/22 06:31:58;;;;;;;6.22;2.90;;;;;;;3.25;93.28;101568.03;5012254;28;20148;-75
2022/01/22 06:34:23;;;;;;;5.90;2.85;;;;;;;3.15;94.22;101564.16;5013368;28;20029;-76
2022/01/22 06:36:49;;;;;;;6.20;2.70;;;;;;;3.11;94.86;101567.44;5012006;28;20040;-75
2022/01/22 06:39:17;;;;;;;5.40;3.30;;;;;;;3.08;94.81;101568.19;5012221;28;20128;-75
2022/01/22 06:42:14;;;;;;;7.18;3.22;;;;;;;3.02;94.69;101569.69;5010030;28;20566;-75
2022/01/22 06:44:45;;;;;;;6.72;3.80;;;;;;;2.94;94.95;101571.09;5013035;28;20046;-75
2022/01/22 06:47:45;;;;;;;5.70;3.35;;;;;;;2.88;94.94;101582.13;5009345;28;20039;-75
2022/01/22 06:50:13;;;;;;;5.30;2.95;;;;;;;2.93;94.77;101583.22;5011728;28;20034;-75
2022/01/22 06:52:57;;;;;;;7.53;3.47;;;;;;;2.91;94.78;101582.28;5017752;28;20065;-75
2022/01/22 06:56:00;;;;;;;5.40;2.83;;;;;;;2.91;94.35;101590.09;5010798;28;20068;-75
2022/01/22 06:58:35;;;;;;;6.35;3.28;;;;;;;2.85;93.79;101584.63;5005607;28;20144;-75
2022/01/22 07:01:06;;;;;;;7.17;3.30;;;;;;;2.82;93.73;101602.75;5010820;28;20030;-75
2022/01/22 07:03:55;;;;;;;6.32;3.00;;;;;;;2.86;92.83;101596.84;5009646;28;20324;-76
2022/01/22 07:06:30;;;;;;;5.80;3.22;;;;;;;2.94;92.62;101590.22;5027833;28;20083;-75
2022/01/22 07:08:55;;;;;;;7.20;3.08;;;;;;;3.03;91.82;101601.03;5012376;28;20034;-74
2022/01/22 07:11:21;;;;;;;7.43;3.28;;;;;;;3.07;91.81;101608.16;5014031;28;20488;-74
2022/01/22 07:13:48;;;;;;;9.02;3.83;;;;;;;3.10;91.59;101606.53;5019514;28;20033;-74
2022/01/22 07:16:14;;;;;;;7.53;3.38;;;;;;;3.13;91.96;101615.34;5011713;28;20084;-74
2022/01/22 07:18:40;;;;;;;7.25;3.15;;;;;;;3.12;91.82;101610.97;4994776;28;20026;-74
2022/01/22 07:21:20;;;;;;;9.63;3.50;;;;;;;3.11;91.86;101613.50;5019541;28;20034;-73
2022/01/22 07:26:21;;;;;;;9.15;4.35;;;;;;;3.06;91.79;101624.63;5019311;28;20042;-73
2022/01/22 07:28:55;;;;;;;10.45;5.07;;;;;;;3.01;92.43;101618.34;5009710;28;20121;-74
2022/01/22 07:31:21;;;;;;;8.90;3.80;;;;;;;2.99;92.30;101621.72;5009469;28;20452;-74
2022/01/22 07:33:47;;;;;;;5.78;3.05;;;;;;;2.96;92.83;101632.91;5011378;28;20038;-74
2022/01/22 07:36:13;;;;;;;8.68;3.90;;;;;;;2.93;93.28;101639.69;5014126;28;20087;-74
2022/01/22 07:38:39;;;;;;;8.38;3.45;;;;;;;2.92;93.23;101640.53;5010343;28;20054;-74
2022/01/22 07:41:09;;;;;;;7.28;3.15;;;;;;;2.89;93.05;101640.41;5010633;28;20034;-74
2022/01/22 07:43:37;;;;;;;8.57;3.75;;;;;;;2.90;93.56;101650.00;5008926;28;20030;-74
2022/01/22 07:46:28;;;;;;;10.45;4.72;;;;;;;2.84;93.17;101653.25;5064869;28;20403;-75
2022/01/22 07:48:58;;;;;;;10.73;4.53;;;;;;;2.83;93.72;101652.34;5046269;28;20029;-74
2022/01/22 07:51:35;;;;;;;7.53;4.25;;;;;;;2.86;93.92;101654.22;5041436;28;20045;-74
2022/01/22 07:54:01;;;;;;;7.07;3.60;;;;;;;2.85;94.42;101658.50;5041541;28;20064;-75
2022/01/22 07:56:30;;;;;;;9.57;4.03;;;;;;;2.93;93.80;101660.56;5041004;28;20086;-74
2022/01/22 07:58:57;;;;;;;8.32;3.42;;;;;;;2.97;93.37;101658.16;5045362;28;20025;-73
2022/01/22 08:01:22;;;;;;;7.45;4.53;;;;;;;3.10;93.66;101656.09;5029683;28;20056;-77
2022/01/22 08:04:06;;;;;;;7.03;4.20;;;;;;;3.22;92.38;101661.78;5047284;28;20040;-76
2022/01/22 08:06:43;;;;;;;8.35;4.35;;;;;;;3.25;91.26;101660.22;5045308;28;20049;-76
2022/01/22 08:09:27;;;;;;;7.65;3.80;;;;;;;3.23;90.91;101672.31;5048157;28;20522;-76
2022/01/22 08:12:14;;;;;;;8.48;3.67;;;;;;;3.18;90.52;101668.59;5039787;28;20033;-76
2022/01/22 08:14:39;;;;;;;8.30;3.45;;;;;;;3.19;88.91;101680.81;5046546;28;20048;-76
2022/01/22 08:17:05;;;;;;;6.38;2.70;;;;;;;3.22;88.68;101674.84;5046624;28;20036;-76
2022/01/22 08:19:34;;;;;;;6.05;3.42;;;;;;;3.21;88.69;101683.50;5046613;28;20029;-76
2022/01/22 08:22:01;;;;;;;7.05;3.03;;;;;;;3.17;88.67;101681.56;5046645;28;20037;-76
2022/01/22 08:24:45;;;;;;;8.43;3.42;;;;;;;3.14;88.29;101691.88;5047484;28;20040;-76
2022/01/22 08:27:15;;;;;;;4.40;2.33;;;;;;;3.15;88.00;101694.56;5044706;28;20040;-76
2022/01/22 08:29:43;;;;;;;7.80;2.30;;;;;;;3.08;86.95;101693.41;5045835;28;20571;-76
2022/01/22 08:32:28;;;;;;;7.85;2.65;;;;;;;3.19;86.36;101701.69;5046700;28;20123;-76
2022/01/22 08:37:38;;;;;;;6.20;2.10;;;;;;;3.24;85.31;101704.50;5042393;28;20029;-74
2022/01/22 08:40:06;;;;;;;4.60;1.60;;;;;;;3.24;84.89;101722.75;5046198;28;20029;-74
2022/01/22 08:42:32;;;;;;;4.35;1.95;;;;;;;3.23;84.24;101721.00;5043457;28;20037;-74
2022/01/22 08:44:57;;;;;;;8.27;2.25;;;;;;;3.26;83.59;101726.34;5045677;28;20525;-74
2022/01/22 08:47:23;;;;;;;6.93;1.77;;;;;;;3.27;82.52;101730.72;5045467;28;20037;-74
2022/01/22 08:49:50;;;;;;;3.45;1.33;;;;;;;3.31;82.03;101729.16;5045418;28;20040;-74
2022/01/22 08:52:17;;;;;;;5.35;1.90;;;;;;;3.27;81.98;101725.50;5046084;28;20037;-74
2022/01/22 08:54:44;;;;;;;4.00;1.48;;;;;;;3.37;81.22;101730.28;5044776;28;20021;-74
2022/01/22 08:57:13;;;;;;;5.47;1.88;;;;;;;3.46;80.72;101727.19;5032654;28;20037;-74
2022/01/22 08:59:54;;;;;;;4.18;1.60;;;;;;;3.55;80.35;101732.78;5032614;28;20060;-74
2022/01/22 09:02:20;;;;;;;4.00;1.42;;;;;;;3.72;79.43;101738.69;5032672;28;20073;-74
2022/01/22 09:04:52;;;;;;;6.40;1.42;;;;;;;4.00;76.38;101747.66;5032284;28;20036;-74
2022/01/22 09:07:41;;;;;;;2.72;0.98;;;;;;;3.97;76.34;101731.84;5030239;28;20033;-74
2022/01/22 09:10:24;;;;;;;5.90;1.40;;;;;;;3.94;76.91;101748.28;5033649;28;20466;-75
2022/01/22 09:13:06;;;;;;;2.92;1.05;;;;;;;3.96;76.44;101764.94;5032437;28;20095;-74
2022/01/22 09:15:54;;;;;;;3.88;1.10;;;;;;;3.89;76.94;101758.53;5028765;28;20036;-74
2022/01/22 09:18:20;;;;;;;3.85;1.60;;;;;;;3.98;75.86;101764.97;5032243;28;20634;-74
2022/01/22 09:23:17;;;;;;;4.03;1.10;;;;;;;4.13;76.36;101781.25;5027774;28;20381;-75
2022/01/22 09:25:43;;;;;;;3.63;1.10;;;;;;;4.15;75.33;101779.59;5024388;28;20022;-74
2022/01/22 09:28:12;;;;;;;5.63;1.58;;;;;;;4.13;75.46;101781.25;5031077;28;20025;-73
2022/01/22 09:30:38;;;;;;;5.40;1.27;;;;;;;4.08;75.08;101788.91;5028358;28;20044;-74
2022/01/22 09:33:03;;;;;;;5.88;1.50;;;;;;;4.13;75.52;101792.59;5028902;28;20029;-74
2022/01/22 09:35:47;;;;;;;6.30;1.52;;;;;;;4.11;75.84;101793.38;5029736;28;20053;-74
2022/01/22 09:38:39;;;;;;;4.75;1.52;;;;;;;4.21;75.13;101795.53;5028793;28;20045;-74
2022/01/22 09:41:25;;;;;;;6.47;2.00;;;;;;;4.20;75.52;101803.31;5030745;28;20423;-74
2022/01/22 09:44:10;;;;;;;8.07;3.30;;;;;;;4.22;76.56;101807.78;5029904;28;20029;-75
2022/01/22 09:46:40;;;;;;;14.40;4.38;;;;;;;4.16;76.35;101802.28;5032340;28;20045;-75
2022/01/22 09:49:16;;;;;;;8.50;2.80;;;;;;;4.11;75.07;101809.03;5015504;28;20037;-75
2022/01/22 09:52:03;;;;;;;9.05;2.63;;;;;;;4.13;76.88;101812.63;5011620;28;20052;-78
2022/01/22 09:54:55;;;;;;;7.38;2.42;;;;;;;4.07;77.07;101820.22;5028357;28;20053;-74
2022/01/22 09:57:26;;;;;;;7.10;2.40;;;;;;;4.17;77.17;101809.31;5032359;28;20053;-75
2022/01/22 10:00:01;;;;;;;6.20;1.77;;;;;;;4.27;76.13;101815.78;5029598;28;20021;-74
2022/01/22 10:02:50;;;;;;;5.78;1.70;;;;;;;4.24;76.35;101821.78;5027211;28;20025;-75
2022/01/22 10:05:48;;;;;;;8.20;1.75;;;;;;;4.26;75.96;101814.00;5018863;28;20099;-75
2022/01/22 10:08:32;;;;;;;4.80;1.60;;;;;;;4.34;76.03;101828.25;5030437;28;20526;-75
2022/01/22 10:11:26;;;;;;;5.88;1.63;;;;;;;4.35;74.81;101824.84;5031591;28;20727;-74
2022/01/22 10:14:10;;;;;;;4.47;1.10;;;;;;;4.30;74.71;101827.25;5030092;28;20487;-74
2022/01/22 10:16:40;;;;;;;4.40;1.40;;;;;;;4.29;75.36;101835.91;5031026;28;20384;-75
2022/01/22 10:19:23;;;;;;;4.60;1.50;;;;;;;4.43;75.53;101832.97;5022319;28;20076;-74
2022/01/22 10:21:48;;;;;;;4.50;1.60;;;;;;;4.44;75.43;101838.25;5031865;28;20029;-74
2022/01/22 10:24:40;;;;;;;5.63;1.73;;;;;;;4.48;74.44;101832.34;5030928;28;20037;-75
2022/01/22 10:27:35;;;;;;;7.20;2.30;;;;;;;4.48;74.57;101832.34;5033978;28;20044;-75
2022/01/22 10:30:10;;;;;;;6.55;2.67;;;;;;;4.49;73.95;101836.72;5036290;28;20108;-75
2022/01/22 10:35:40;;;;;;;7.05;1.73;;;;;;;4.61;74.74;101833.69;5026477;28;20447;-73
2022/01/22 10:38:24;;;;;;;6.10;1.70;;;;;;;4.81;73.51;101843.19;5023990;28;20143;-74
2022/01/22 10:40:56;;;;;;;3.97;1.13;;;;;;;4.89;72.91;101843.50;5032074;28;20073;-74
2022/01/22 10:43:33;;;;;;;5.78;1.63;;;;;;;4.82;73.62;101845.00;5031770;28;20041;-75
2022/01/22 10:48:42;;;;;;;4.43;1.48;;;;;;;4.82;72.36;101842.38;5027174;28;20049;-75
2022/01/22 10:51:14;;;;;;;3.67;1.30;;;;;;;4.80;73.42;101836.19;5031673;28;20163;-74
2022/01/22 10:53:49;;;;;;;6.57;1.92;;;;;;;4.78;72.19;101840.47;5027999;28;20048;-74
2022/01/22 10:56:20;;;;;;;4.78;1.73;;;;;;;4.68;72.18;101837.44;5031001;28;20393;-74
2022/01/22 10:59:05;;;;;;;4.93;1.88;;;;;;;4.64;71.35;101835.53;5027167;28;20030;-74
2022/01/22 11:01:51;;;;;;;6.07;1.67;;;;;;;4.56;72.52;101843.09;5040383;28;20045;-74
2022/01/22 11:04:33;;;;;;;4.07;1.73;;;;;;;4.59;71.72;101846.72;5023800;28;20103;-75
2022/01/22 11:07:01;;;;;;;5.82;1.50;;;;;;;4.61;72.70;101846.75;5022634;28;20037;-75
2022/01/22 11:09:30;;;;;;;8.68;1.85;;;;;;;4.68;71.64;101845.28;5021192;28;20037;-75
2022/01/22 11:11:58;;;;;;;7.05;2.63;;;;;;;4.70;71.33;101843.63;5026158;28;20128;-74
2022/01/22 11:14:24;;;;;;;4.32;1.48;;;;;;;4.67;72.59;101833.06;5023796;28;20037;-74
2022/01/22 11:16:52;;;;;;;4.07;1.92;;;;;;;4.74;72.09;101838.59;5026652;28;20039;-74
2022/01/22 11:19:21;;;;;;;4.40;1.92;;;;;;;4.85;71.56;101846.84;5030014;28;20045;-74
2022/01/22 11:21:49;;;;;;;8.75;1.73;;;;;;;4.83;71.34;101852.00;5022367;28;20393;-75
2022/01/22 11:24:17;;;;;;;8.02;1.63;;;;;;;4.82;70.94;101854.53;5024691;28;20065;-75
2022/01/22 11:26:47;;;;;;;6.97;1.95;;;;;;;4.78;72.12;101858.78;5027045;28;20049;-74
2022/01/22 11:29:15;;;;;;;7.03;1.75;;;;;;;4.69;71.51;101847.97;5027411;28;20049;-74
2022/01/22 11:31:45;;;;;;;6.65;1.40;;;;;;;4.84;72.55;101852.88;5027388;28;20132;-75
2022/01/22 11:34:19;;;;;;;6.88;2.28;;;;;;;5.09;72.42;101844.25;5020748;28;20517;-74
2022/01/22 11:37:01;;;;;;;5.43;1.45;;;;;;;5.08;69.67;101849.41;5029143;28;20396;-74
2022/01/22 11:39:26;;;;;;;6.50;1.67;;;;;;;5.04;69.42;101857.16;5028483;28;20049;-74
2022/01/22 11:41:58;;;;;;;8.55;3.28;;;;;;;5.04;70.32;101851.03;5030046;28;20041;-74
2022/01/22 11:44:39;;;;;;;5.45;1.85;;;;;;;5.17;70.16;101865.47;5030384;28;20455;-74
2022/01/22 11:47:12;;;;;;;6.80;1.73;;;;;;;4.95;69.88;101856.81;5025489;28;20033;-74
2022/01/22 11:49:37;;;;;;;7.18;2.78;;;;;;;5.02;69.73;101866.66;5026606;28;20034;-74
2022/01/22 11:52:09;;;;;;;5.88;1.52;;;;;;;4.97;68.27;101849.00;5026839;28;20045;-73
2022/01/22 11:54:51;;;;;;;5.43;2.22;;;;;;;4.97;70.10;101843.78;5026592;28;20025;-74
2022/01/22 11:57:16;;;;;;;6.43;1.58;;;;;;;4.92;68.46;101853.19;5028989;28;20033;-74
2022/01/22 11:59:43;;;;;;;3.88;1.42;;;;;;;4.95;68.71;101855.91;5027056;28;20037;-74
2022/01/22 12:02:13;;;;;;;7.63;1.80;;;;;;;4.90;68.83;101852.22;5027360;28;20042;-73
2022/01/22 12:04:38;;;;;;;7.63;2.00;;;;;;;4.82;69.42;101846.69;5027512;28;20033;-75
2022/01/22 12:07:04;;;;;;;5.60;1.50;;;;;;;4.87;68.71;101852.09;5027641;28;20133;-74
2022/01/22 12:09:32;;;;;;;5.95;1.50;;;;;;;4.87;68.96;101849.50;5028540;28;20037;-74
2022/01/22 12:15:03;;;;;;;6.15;1.35;;;;;;;4.90;68.96;101833.91;5027463;28;20500;-75
2022/01/22 12:17:47;;;;;;;9.77;2.63;;;;;;;4.91;68.66;101843.56;5027470;28;20510;-74
2022/01/22 12:23:14;;;;;;;6.78;1.67;;;;;;;4.99;67.01;101831.66;5023998;28;20044;-74
2022/01/22 12:25:40;;;;;;;9.50;2.20;;;;;;;5.00;68.27;101844.81;5026791;28;20124;-74
2022/01/22 12:28:07;;;;;;;4.30;1.85;;;;;;;5.16;69.07;101840.13;5026497;28;20504;-74
2022/01/22 12:30:34;;;;;;;5.25;1.73;;;;;;;5.23;68.01;101839.50;5028130;28;20045;-74
2022/01/22 12:33:00;;;;;;;4.28;1.55;;;;;;;5.19;67.09;101846.38;5031406;28;20029;-75
2022/01/22 12:35:36;;;;;;;7.07;2.20;;;;;;;5.10;68.58;101856.50;5032566;28;20496;-74
2022/01/22 12:38:26;;;;;;;6.43;2.00;;;;;;;5.08;69.46;101849.41;5028160;28;20025;-74
2022/01/22 12:40:59;;;;;;;6.88;2.03;;;;;;;5.13;68.23;101850.47;5029397;28;20041;-74
2022/01/22 12:43:31;;;;;;;7.20;2.00;;;;;;;5.05;68.09;101855.41;5031001;28;20530;-74
2022/01/22 12:45:59;;;;;;;5.18;2.20;;;;;;;5.20;69.32;101857.72;5030462;28;20404;-75
2022/01/22 12:48:31;;;;;;;6.93;1.75;;;;;;;5.36;68.97;101852.22;5028996;28;20111;-75
2022/01/22 12:51:08;;;;;;;4.97;1.80;;;;;;;5.49;67.25;101850.94;5034391;28;20420;-75
2022/01/22 12:53:35;;;;;;;8.20;1.80;;;;;;;5.49;67.29;101853.53;5033946;28;20279;-75
2022/01/22 12:56:24;;;;;;;9.10;1.80;;;;;;;5.56;68.37;101850.31;5033792;28;20111;-75
2022/01/22 12:58:47;;;;;;;6.75;1.95;;;;;;;5.51;67.55;101853.63;5031372;28;20419;-75
2022/01/22 13:01:24;;;;;;;6.25;1.83;;;;;;;5.48;67.89;101849.16;5033969;28;20048;-74
2022/01/22 13:03:52;;;;;;;5.80;1.67;;;;;;;5.40;67.21;101845.38;5034095;28;20076;-75
2022/01/22 13:06:19;;;;;;;4.13;1.80;;;;;;;5.42;67.18;101847.22;5031354;28;20091;-75
2022/01/22 13:09:03;;;;;;;7.50;2.38;;;;;;;5.27;68.15;101855.41;5030403;28;20125;-74
2022/01/22 13:11:33;;;;;;;5.85;2.03;;;;;;;5.31;68.23;101855.50;5033826;28;20411;-74
2022/01/22 13:13:59;;;;;;;6.95;2.30;;;;;;;5.25;68.35;101857.06;5033715;28;20163;-75
2022/01/22 13:16:25;;;;;;;6.80;2.38;;;;;;;5.30;68.96;101854.63;5033764;28;20420;-74
2022/01/22 13:18:58;;;;;;;5.35;2.13;;;;;;;5.45;68.47;101859.53;5032317;28;20092;-74
2022/01/22 13:21:26;;;;;;;5.47;2.03;;;;;;;5.46;66.94;101848.19;5030230;28;20037;-74
2022/01/22 13:24:22;;;;;;;4.78;1.90;;;;;;;5.27;67.73;101858.00;5033661;28;20063;-74
2022/01/22 13:27:13;;;;;;;5.80;1.83;;;;;;;5.20;67.16;101869.09;5029273;28;20136;-74
2022/01/22 13:29:42;;;;;;;10.27;2.42;;;;;;;5.12;66.49;101877.50;5032960;28;20041;-75
2022/01/22 13:32:18;;;;;;;5.82;1.48;;;;;;;5.02;66.26;101873.63;5033382;28;20124;-75